EmailTwitter


Observations de surface / Québec / CYHU (71371)

Régions: Québec | Canada | États-Unis | Europe | France | UK | Ailleurs
Station
Affichage
Infos & localisation pour CYHU (71371) | Aide pour décoder les METARs

Observations prises le 2017-11-25 à 01H00 UTC à MONTREAL/ST HUBE, QB (CYHU)

Etat du ciel: partiellement nuageux.

Température: 5.0 Celsius

Point de rosée: 0.0 Celsius

Humidité relative: 70%

Facteur vent: 1.

Facteur vent (rafales): 0.

Vents: Sud à 24 km/h ou 13 noeuds.

Rafale du vent: 35 km/h ou 19 noeuds.

Pression au niveau moyen de la mer: 100.56 kilopascals.

Calage altimétrique: 100.54 kilopascals ou 29.69 pouces de mercure.

Visibilité horizontale: 9.00 milles terrestres ou 14.40 kilomètres.

Hauteur du plafond: 3658 mètres ( 12000 pieds ).

Observation METAR:

CYHU 250100Z AUTO 17013G19KT 9SM BKN120 05/M00 A2969 RMK SLP056=